• Join FlightAware (Why Join?)
  • Login
  • US Flag 
12:16AM EDT


 

Airport Tracker/Info


-or-


 

Live Flight TrackerFlight Track Log ✈ SWA407 ✈ 25-Apr-2013 ✈ KATL - KSFO

Flight Track Log - Related Links

Times and Time Zones

All times are in EDT time to prevent confusion due to time zone crossing. See the SWA407 flight status page for this flight to view local times or setup timezone preferences in your user account.

Time Position Orientation Groundspeed Altitude Reporting Facility
EDT Latitude Longitude Course Direction KTS MPH feet Rate Location/Type
05:05PM 33.6556 -84.4981 270° West 445 512 3,200  Level Atlanta Center
05:06PM 33.6700 -84.5831 282° West 335 386 5,600 3,000 Climbing Atlanta Center
05:07PM 33.6819 -84.6753 279° West 261 300 9,200 2,700 Climbing Atlanta Center
05:08PM 33.6983 -84.7603 283° West 283 326 11,100 2,220 Climbing Atlanta Center
05:09PM 33.7164 -84.8806 280° West 302 348 13,700 2,700 Climbing Atlanta Center
05:10PM 33.7322 -84.9931 280° West 339 390 16,500 2,520 Climbing Atlanta Center
05:11PM 33.8001 -84.6791 270° West  Level FlightAware Approximate
05:11PM 33.7500 -85.1081 281° West 351 404 18,800  Level Atlanta Center
05:12PM 33.7678 -85.2283 280° West 356 410 21,000 2,100 Climbing Atlanta Center
05:13PM 33.7894 -85.3511 282° West 362 417 23,000 1,920 Climbing Atlanta Center
05:14PM 33.8089 -85.4714 281° West 372 428 24,900 1,860 Climbing Atlanta Center
05:16PM 33.8600 -85.7175 284° West 372 428 28,700 1,620 Climbing Atlanta Center
05:17PM 33.8919 -85.8156 291° West 377 434 29,900 1,560 Climbing Atlanta Center
05:18PM 33.9281 -85.9314 291° West 367 422 31,900 1,800 Climbing Atlanta Center
05:19PM 33.9617 -86.0425 290° West 361 415 33,500 1,380 Climbing Atlanta Center
05:20PM 33.9975 -86.1511 292° West 356 410 34,700 720 Climbing Atlanta Center
05:21PM 34.0267 -86.2644 287° West 350 403 35,000 120 Climbing Atlanta Center
05:22PM 34.0581 -86.3756 289° West 350 403 35,000  Level Atlanta Center
05:23PM 34.0914 -86.4894 289° West 350 403 35,000  Level Atlanta Center
05:24PM 34.1225 -86.6008 289° West 350 403 35,000  Level Atlanta Center
05:25PM 34.1556 -86.7122 290° West 350 403 35,000  Level Atlanta Center
05:26PM 34.1714 -86.7822 285° West 362 417 35,000  Level Memphis Center
05:27PM 34.2036 -86.8939 289° West 370 426 35,000 240 Level Memphis Center
05:28PM 34.2339 -87.0083 288° West 370 426 35,500 480 Climbing Memphis Center
05:29PM 34.2639 -87.1203 288° West 357 411 36,000 240 Climbing Memphis Center
05:30PM 34.2958 -87.2272 290° West 352 405 36,000  Level Memphis Center
05:31PM 34.3258 -87.3417 288° West 345 397 36,000  Level Memphis Center
05:32PM 34.3578 -87.4511 289° West 345 397 36,000  Level Memphis Center
05:33PM 34.3875 -87.5633 288° West 350 403 36,000  Level Memphis Center
05:34PM 34.4192 -87.6758 289° West 350 403 36,000  Level Memphis Center
05:35PM 34.4506 -87.7856 289° West 350 403 36,000  Level Memphis Center
05:36PM 34.4800 -87.8981 288° West 344 396 36,000  Level Memphis Center
05:37PM 34.5092 -88.0056 288° West 344 396 36,000  Level Memphis Center
05:38PM 34.5342 -88.1083 286° West 344 396 36,000  Level Memphis Center
05:39PM 34.5633 -88.2261 287° West 360 414 36,000  Level Memphis Center
05:40PM 34.5922 -88.3364 288° West 360 414 36,000  Level Memphis Center
05:41PM 34.6233 -88.4467 289° West 360 414 36,000  Level Memphis Center
05:42PM 34.6519 -88.5519 288° West 343 395 36,000  Level Memphis Center
05:43PM 34.6806 -88.6625 287° West 343 395 36,000  Level Memphis Center
05:44PM 34.7114 -88.7756 288° West 343 395 36,000  Level Memphis Center
05:45PM 34.7400 -88.8964 286° West 343 395 36,000  Level Memphis Center
05:46PM 34.7706 -89.0097 288° West 343 395 36,000  Level Memphis Center
05:47PM 34.7989 -89.1206 287° West 343 395 36,000  Level Memphis Center
05:48PM 34.8269 -89.2289 288° West 343 395 36,000  Level Memphis Center
05:49PM 34.8550 -89.3422 287° West 343 395 36,000  Level Memphis Center
05:50PM 34.8831 -89.4533 287° West 343 395 36,000  Level Memphis Center
05:51PM 34.9131 -89.5594 289° West 343 395 36,000  Level Memphis Center
05:52PM 34.9428 -89.6731 288° West 349 402 36,000  Level Memphis Center
05:53PM 34.9769 -89.7894 290° West 357 411 36,000  Level Memphis Center
05:54PM 35.0253 -89.8981 299° West 366 421 36,000  Level Memphis Center
05:55PM 35.0653 -90.0019 295° West 355 409 36,000  Level Memphis Center
05:56PM 35.1094 -90.1058 297° West 350 403 36,000  Level Memphis Center
05:57PM 35.1428 -90.2175 290° West 350 403 36,000  Level Memphis Center
05:58PM 35.1764 -90.3267 291° West 350 403 36,000  Level Memphis Center
05:59PM 35.2097 -90.4383 290° West 350 403 36,000  Level Memphis Center
06:00PM 35.2431 -90.5503 290° West 350 403 36,000  Level Memphis Center
06:01PM 35.2761 -90.6622 290° West 350 403 36,000  Level Memphis Center
06:02PM 35.3072 -90.7592 291° West 350 403 36,000  Level Memphis Center
06:03PM 35.3381 -90.8711 289° West 350 403 36,000  Level Memphis Center
06:04PM 35.3731 -90.9808 291° West 350 403 36,000  Level Memphis Center
06:05PM 35.4014 -91.1008 286° West 344 396 36,000  Level Memphis Center
06:06PM 35.4383 -91.2031 294° West 352 405 36,000  Level Memphis Center
06:07PM 35.4689 -91.3156 288° West 352 405 36,000  Level Memphis Center
06:08PM 35.5033 -91.4358 289° West 347 399 36,000  Level Memphis Center
06:09PM 35.5378 -91.5486 291° West 347 399 36,000  Level Memphis Center
06:10PM 35.5700 -91.6586 290° West 352 405 36,000  Level Memphis Center
06:11PM 35.6003 -91.7717 288° West 352 405 36,000  Level Memphis Center
06:12PM 35.6322 -91.8819 290° West 352 405 36,000  Level Memphis Center
06:13PM 35.6600 -91.9950 287° West 352 405 36,000  Level Memphis Center
06:14PM 35.6961 -92.1056 292° West 352 405 36,000  Level Memphis Center
06:15PM 35.7297 -92.2189 290° West 352 405 36,000  Level Memphis Center
06:16PM 35.7614 -92.3347 289° West 352 405 36,000  Level Memphis Center
06:17PM 35.7908 -92.4453 288° West 352 405 36,000  Level Memphis Center
06:18PM 35.8222 -92.5561 289° West 347 399 36,000  Level Memphis Center
06:19PM 35.8536 -92.6672 289° West 347 399 36,000  Level Memphis Center
06:20PM 35.8811 -92.7678 289° West 352 405 36,000  Level Memphis Center
06:21PM 35.9122 -92.8789 289° West 347 399 36,000  Level Memphis Center
06:22PM 35.9411 -92.9900 288° West 347 399 36,000  Level Memphis Center
06:23PM 35.9742 -93.1039 290° West 352 405 36,000  Level Memphis Center
06:24PM 36.0050 -93.2181 288° West 347 399 36,000  Level Memphis Center
06:25PM 36.0336 -93.3292 288° West 347 399 36,000  Level Memphis Center
06:26PM 36.0644 -93.4383 289° West 347 399 36,000  Level Memphis Center
06:27PM 36.1244 -93.5331 308° West 347 399 36,000  Level Memphis Center
06:28PM 36.1911 -93.6231 313° West 352 405 36,000  Level Memphis Center
06:29PM 36.2594 -93.7106 314° West 352 405 36,000  Level Memphis Center
06:30PM 36.3239 -93.7983 312° West 351 404 36,000  Level Memphis Center
06:31PM 36.3906 -93.9386 301° West 344 396 36,000  Level Kansas City Center
06:32PM 36.4153 -94.0500 285° West 336 387 36,000  Level Kansas City Center
06:33PM 36.4403 -94.1625 285° West 336 387 36,000  Level Kansas City Center
06:34PM 36.4653 -94.2742 286° West 337 388 36,000  Level Kansas City Center
06:35PM 36.4900 -94.3881 285° West 340 391 36,000  Level Kansas City Center
06:36PM 36.5144 -94.5014 285° West 341 392 36,000  Level Kansas City Center
06:37PM 36.5439 -94.6389 285° West 342 394 36,000  Level Kansas City Center
06:38PM 36.5694 -94.7525 286° West 342 394 36,000  Level Kansas City Center
06:39PM 36.5936 -94.8661 285° West 341 392 36,000  Level Kansas City Center
06:40PM 36.6181 -94.9781 285° West 339 390 36,000  Level Kansas City Center
06:41PM 36.6422 -95.0914 285° West 339 390 36,000  Level Kansas City Center
06:42PM 36.6656 -95.2031 285° West 337 388 36,000  Level Kansas City Center
06:43PM 36.6947 -95.3389 285° West 340 391 36,000  Level Kansas City Center
06:44PM 36.7186 -95.4533 285° West 343 395 36,000  Level Kansas City Center
06:45PM 36.7422 -95.5672 285° West 343 395 36,000  Level Kansas City Center
06:47PM 36.7656 -95.6806 284° West 341 392 36,000  Level Kansas City Center
06:48PM 36.7892 -95.7947 285° West 341 392 36,000  Level Kansas City Center
06:49PM 36.8175 -95.9311 285° West 340 391 36,000  Level Kansas City Center
06:50PM 36.8400 -96.0442 284° West 338 389 36,000  Level Kansas City Center
06:51PM 36.8650 -96.1583 285° West 340 391 36,000  Level Kansas City Center
06:52PM 36.8889 -96.2739 285° West 342 394 36,000  Level Kansas City Center
06:53PM 36.9133 -96.3883 285° West 342 394 36,000  Level Kansas City Center
06:54PM 36.9372 -96.5047 284° West 343 395 36,000  Level Kansas City Center
06:55PM 36.9664 -96.6433 285° West 344 396 36,000  Level Kansas City Center
06:56PM 36.9908 -96.7606 285° West 346 398 36,000  Level Kansas City Center
06:57PM 37.0128 -96.8647 285° West 347 399 36,000  Level Kansas City Center
06:58PM 37.0358 -96.9814 284° West 346 398 36,000  Level Kansas City Center
06:59PM 37.0642 -97.1239 284° West 349 402 36,000  Level Kansas City Center
07:00PM 37.0875 -97.2419 284° West 350 403 36,000  Level Kansas City Center
07:01PM 37.1114 -97.3611 284° West 352 405 36,000  Level Kansas City Center
07:02PM 37.1353 -97.4817 284° West 353 406 36,000  Level Kansas City Center
07:03PM 37.1594 -97.6047 284° West 358 412 36,000  Level Kansas City Center
07:04PM 37.1819 -97.7261 283° West 358 412 36,000  Level Kansas City Center
07:05PM 37.2117 -97.8728 284° West 359 413 36,000  Level Kansas City Center
07:06PM 37.2353 -97.9944 284° West 359 413 36,000  Level Kansas City Center
07:07PM 37.2583 -98.1161 283° West 358 412 36,000  Level Kansas City Center
07:08PM 37.2819 -98.2386 284° West 358 412 36,000 420 Level Kansas City Center
07:09PM 37.3061 -98.3608 284° West 359 413 36,900 960 Climbing Kansas City Center
07:10PM 37.3289 -98.4831 283° West 359 413 38,000 480 Climbing Kansas City Center
07:11PM 37.3517 -98.6031 283° West 357 411 38,000  Level Kansas City Center
07:12PM 37.3778 -98.7489 283° West 355 409 38,000  Level Kansas City Center
07:13PM 37.4011 -98.8717 283° West 358 412 38,000  Level Kansas City Center
07:14PM 37.4233 -98.9939 283° West 358 412 38,000  Level Kansas City Center
07:17PM 37.4700 -99.2397 284° West 360 414 38,000  Level Kansas City Center
07:18PM 37.4917 -99.3625 283° West 360 414 38,000  Level Kansas City Center
07:19PM 37.5147 -99.4967 282° West 358 412 38,000  Level Kansas City Center
07:20PM 37.5397 -99.6353 283° West 362 417 38,000  Level Kansas City Center
07:21PM 37.5611 -99.7561 283° West 366 421 38,000  Level Kansas City Center
07:22PM 37.5869 -99.8972 283° West 371 427 38,000  Level Kansas City Center
07:23PM 37.6086 -100.0189 283° West 371 427 38,000  Level Kansas City Center
07:24PM 37.6339 -100.1592 283° West 369 425 38,000  Level Kansas City Center
07:25PM 37.6531 -100.2792 281° West 367 422 38,000  Level Kansas City Center
07:26PM 37.6775 -100.4183 283° West 365 420 38,000  Level Kansas City Center
07:27PM 37.6972 -100.5386 282° West 364 419 38,000  Level Kansas City Center
07:28PM 37.7197 -100.6614 283° West 361 415 38,000  Level Kansas City Center
07:29PM 37.7408 -100.7878 282° West 364 419 38,000  Level Kansas City Center
07:30PM 37.7603 -100.9144 281° West 365 420 38,000  Level Kansas City Center
07:31PM 37.7828 -101.0481 282° West 361 415 38,000  Level Kansas City Center
07:32PM 37.8056 -101.1878 282° West 364 419 38,000  Level Kansas City Center
07:33PM 37.8247 -101.3072 282° West 364 419 38,000  Level Kansas City Center
07:34PM 37.8481 -101.4497 282° West 370 426 38,000  Level Kansas City Center
07:35PM 37.8681 -101.5719 282° West 370 426 38,000  Level Kansas City Center
07:36PM 37.8900 -101.7119 281° West 366 421 38,000  Level Kansas City Center
07:37PM 37.9089 -101.8308 281° West 363 418 38,000  Level Kansas City Center
07:38PM 37.9353 -101.9906 282° West 363 418 38,000  Level Denver Center
07:39PM 37.9533 -102.1106 281° West 363 418 38,000  Level Denver Center
07:40PM 37.9761 -102.2536 281° West 370 426 38,000  Level Denver Center
07:42PM 37.9953 -102.3761 281° West 371 427 38,000  Level Denver Center
07:43PM 38.0144 -102.5247 279° West 379 436 38,000  Level Denver Center
07:44PM 38.0331 -102.6464 281° West 374 430 38,000  Level Denver Center
07:45PM 38.0517 -102.7908 279° West 372 428 38,000  Level Denver Center
07:46PM 38.0689 -102.9164 280° West 376 433 38,000  Level Denver Center
07:47PM 38.0886 -103.0656 280° West 382 440 38,000  Level Denver Center
07:48PM 38.1050 -103.1908 279° West 378 435 38,000  Level Denver Center
07:49PM 38.1244 -103.3378 280° West 378 435 38,000  Level Denver Center
07:50PM 38.1406 -103.4628 279° West 377 434 38,000  Level Denver Center
07:51PM 38.1597 -103.6122 279° West 382 440 38,000  Level Denver Center
07:52PM 38.1761 -103.7453 279° West 379 436 38,000  Level Denver Center
07:53PM 38.1947 -103.8867 280° West 384 442 38,000  Level Denver Center
07:54PM 38.2111 -104.0144 279° West 386 444 38,000  Level Denver Center
07:55PM 38.2283 -104.1631 278° West 380 437 38,000  Level Denver Center
07:56PM 38.2444 -104.2906 279° West 381 438 38,000  Level Denver Center
07:57PM 38.2625 -104.4392 279° West 382 440 38,000  Level Denver Center
07:58PM 38.2769 -104.5658 278° West 380 437 38,000  Level Denver Center
07:59PM 38.2956 -104.7158 279° West 384 442 38,000  Level Denver Center
08:00PM 38.3114 -104.8475 279° West 390 449 38,000  Level Denver Center
08:01PM 38.3242 -104.9583 278° West 394 453 38,000  Level Denver Center
08:02PM 38.3433 -105.1344 278° West 395 455 38,000  Level Denver Center
08:03PM 38.3511 -105.2717 274° West 390 449 38,000  Level Denver Center
08:04PM 38.3600 -105.4108 275° West 389 448 38,000  Level Denver Center
08:05PM 38.3692 -105.5481 275° West 386 444 38,000  Level Denver Center
08:06PM 38.3794 -105.7067 275° West 383 441 38,000  Level Denver Center
08:07PM 38.3858 -105.8436 273° West 386 444 38,000  Level Denver Center
08:08PM 38.3883 -105.9789 271° West 380 437 38,000  Level Denver Center
08:09PM 38.3897 -106.1147 271° West 382 440 38,000  Level Denver Center
08:10PM 38.3931 -106.2492 272° West 378 435 38,000  Level Denver Center
08:11PM 38.3944 -106.3869 271° West 387 445 38,000  Level Denver Center
08:13PM 38.3964 -106.5250 271° West 387 445 38,000  Level Denver Center
08:14PM 38.3992 -106.6622 272° West 387 445 38,000  Level Denver Center
08:15PM 38.4008 -106.7986 271° West 385 443 38,000  Level Denver Center
08:16PM 38.4019 -106.9356 271° West 384 442 38,000  Level Denver Center
08:17PM 38.4033 -107.1008 271° West 387 445 38,000  Level Denver Center
08:18PM 38.4047 -107.2511 271° West 389 448 38,000  Level Denver Center
08:19PM 38.4053 -107.3825 270° West 389 448 38,000  Level Denver Center
08:20PM 38.4069 -107.5381 271° West 391 450 38,000  Level Denver Center
08:21PM 38.4072 -107.6719 270° West 393 452 38,000  Level Denver Center
08:22PM 38.4083 -107.8047 271° West 391 450 38,000  Level Denver Center
08:23PM 38.4083 -107.9597 270° West 392 451 38,000  Level Denver Center
08:24PM 38.4092 -108.0919 271° West 390 449 38,000  Level Denver Center
08:25PM 38.4097 -108.2483 270° West 393 452 38,000  Level Denver Center
08:26PM 38.4100 -108.3822 270° West 394 453 38,000  Level Denver Center
08:27PM 38.4097 -108.5406 270° West 398 458 38,000  Level Denver Center
08:28PM 38.4094 -108.6778 270° West 401 461 38,000  Level Denver Center
08:29PM 38.4089 -108.8153 270° West 404 465 38,000  Level Denver Center
08:30PM 38.4072 -108.9764 269° West 406 467 38,000  Level Denver Center
08:31PM 38.4069 -109.1158 270° West 410 472 38,000  Level Denver Center
08:32PM 38.4053 -109.2772 269° West 407 468 38,000  Level Denver Center
08:33PM 38.4033 -109.4131 269° West 403 464 38,000  Level Denver Center
08:34PM 38.4014 -109.5739 269° West 404 465 38,000  Level Denver Center
08:35PM 38.4006 -109.7106 270° West 403 464 38,000  Level Denver Center
08:36PM 38.3975 -109.8711 269° West 406 467 38,000  Level Denver Center
08:37PM 38.3958 -110.0078 269° West 404 465 38,000  Level Denver Center
08:38PM 38.3939 -110.1503 269° West 414 476 38,000  Level Denver Center
08:39PM 38.3936 -110.2231 270° West 415 478 38,000  Level Salt Lake Center
08:40PM 38.3919 -110.3875 269° West 415 478 38,000  Level Salt Lake Center
08:40PM 38.3881 -110.4553 266° West 414 476 38,000  Level Denver Center
08:41PM 38.3858 -110.6197 269° West 413 475 38,000  Level Denver Center
08:42PM 38.3861 -110.6925 270° West 414 476 38,000  Level Salt Lake Center
08:43PM 38.3831 -110.8308 268° West 412 474 38,000  Level Salt Lake Center
08:44PM 38.3764 -110.9806 267° West 409 471 38,000  Level Salt Lake Center
08:45PM 38.3739 -111.1250 269° West 409 471 38,000  Level Salt Lake Center
08:46PM 38.3697 -111.2706 268° West 412 474 38,000  Level Salt Lake Center
08:47PM 38.3681 -111.4189 269° West 416 479 38,000  Level Salt Lake Center
08:48PM 38.3642 -111.5633 268° West 411 473 38,000  Level Salt Lake Center
08:49PM 38.3600 -111.7367 268° West 410 472 38,000  Level Salt Lake Center
08:50PM 38.3550 -111.8806 268° West 408 470 38,000  Level Salt Lake Center
08:51PM 38.3503 -112.0233 268° West 405 466 38,000  Level Salt Lake Center
08:52PM 38.3461 -112.1675 268° West 409 471 38,000  Level Salt Lake Center
08:53PM 38.3419 -112.3103 268° West 406 467 38,000  Level Salt Lake Center
08:54PM 38.3361 -112.4525 267° West 406 467 38,000  Level Salt Lake Center
08:55PM 38.3308 -112.5956 267° West 406 467 38,000  Level Salt Lake Center
08:56PM 38.3236 -112.7681 267° West 408 470 38,000  Level Salt Lake Center
08:57PM 38.3178 -112.9125 267° West 410 472 38,000  Level Salt Lake Center
08:58PM 38.3125 -113.0561 267° West 410 472 38,000  Level Salt Lake Center
08:59PM 38.3061 -113.1994 267° West 409 471 38,000  Level Salt Lake Center
09:00PM 38.3006 -113.3433 267° West 409 471 38,000  Level Salt Lake Center
09:01PM 38.2928 -113.4897 266° West 414 476 38,000  Level Salt Lake Center
09:02PM 38.2853 -113.6647 267° West 415 478 38,000  Level Salt Lake Center
09:03PM 38.2794 -113.8106 267° West 416 479 38,000  Level Salt Lake Center
09:04PM 38.2728 -113.9572 267° West 416 479 38,000  Level Salt Lake Center
09:05PM 38.2644 -114.1056 266° West 419 482 38,000 -420 Level Salt Lake Center
09:07PM 38.2572 -114.2550 267° West 423 487 37,200 -840 Descending Salt Lake Center
09:08PM 38.2492 -114.4069 266° West 429 494 36,300 -1,260 Descending Salt Lake Center
09:09PM 38.2453 -114.5583 268° West 430 495 34,700 -1,920 Descending Salt Lake Center
09:10PM 38.2378 -114.7411 267° West 433 498 32,400 -1,320 Descending Salt Lake Center
09:11PM 38.2319 -114.8964 267° West 439 505 32,000 -240 Descending Salt Lake Center
09:12PM 38.2261 -115.0508 267° West 439 505 32,000  Level Salt Lake Center
09:13PM 38.2203 -115.2019 267° West 431 496 32,000  Level Salt Lake Center
09:14PM 38.2142 -115.3433 267° West 430 495 32,000  Level Salt Lake Center
09:15PM 38.2061 -115.5264 267° West 431 496 32,000  Level Salt Lake Center
09:16PM 38.2008 -115.6789 268° West 431 496 32,000  Level Salt Lake Center
09:17PM 38.1936 -115.8317 267° West 432 497 32,000  Level Salt Lake Center
09:18PM 38.1856 -115.9833 266° West 432 497 32,000  Level Salt Lake Center
09:19PM 38.1797 -116.1369 267° West 435 501 32,000  Level Salt Lake Center
09:20PM 38.1708 -116.2903 266° West 436 502 32,000  Level Salt Lake Center
09:21PM 38.1672 -116.3831 267° West 437 503 32,000  Level Oakland Center
09:22PM 38.1586 -116.5392 266° West 441 507 32,000  Level Oakland Center
09:24PM 38.1408 -116.8819 266° West 442 509 32,000  Level Oakland Center
09:24PM 38.1378 -116.9436 266° West 442 509 32,000  Level Salt Lake Center
09:25PM 38.1294 -117.1008 266° West 442 509 32,000  Level Salt Lake Center
09:26PM 38.1225 -117.2025 265° West 448 516 32,000  Level Oakland Center
09:27PM 38.0981 -117.3611 259° West 464 534 32,000  Level Oakland Center
09:28PM 38.0703 -117.5239 258° West 455 524 32,000  Level Oakland Center
09:29PM 38.0947 -117.6694 282° West 422 486 32,000  Level Oakland Center
09:30PM 38.1250 -117.8117 285° West 416 479 32,000  Level Oakland Center
09:31PM 38.1042 -117.9661 260° West 442 509 32,000  Level Oakland Center
09:32PM 38.0822 -118.1128 259° West 426 490 32,000  Level Oakland Center
09:33PM 38.0619 -118.2561 260° West 414 476 32,000  Level Oakland Center
09:34PM 38.0403 -118.4014 259° West 419 482 32,000  Level Oakland Center
09:35PM 38.0189 -118.5453 259° West 417 480 32,000  Level Oakland Center
09:36PM 37.9969 -118.6903 259° West 420 483 32,000  Level Oakland Center
09:37PM 37.9750 -118.8361 259° West 420 483 32,000  Level Oakland Center
09:38PM 37.9519 -118.9856 259° West 433 498 32,000  Level Oakland Center
09:39PM 37.9228 -119.1750 259° West 461 531 32,000  Level Oakland Center
09:40PM 37.8964 -119.3361 258° West 467 537 32,000  Level Oakland Center
09:41PM 37.8717 -119.4981 259° West 469 540 32,000  Level Oakland Center
09:42PM 37.8453 -119.6578 258° West 464 534 32,000  Level Oakland Center
09:43PM 37.8194 -119.8206 259° West 469 540 32,000  Level Oakland Center
09:44PM 37.7931 -119.9806 258° West 465 535 32,000  Level Oakland Center
09:45PM 37.7667 -120.1428 258° West 468 539 32,000 -1,020 Level Oakland Center
09:46PM 37.7394 -120.3008 258° West 460 529 30,000 -2,160 Descending Oakland Center
09:47PM 37.7139 -120.4525 258° West 443 510 27,700 -2,160 Descending Oakland Center
09:48PM 37.6897 -120.5994 258° West 429 494 25,600 -2,280 Descending Oakland Center
09:49PM 37.6667 -120.7167 256° West 411 473 23,900 -2,220 Descending Northern Cal TRACON
09:50PM 37.6500 -120.8500 261° West 395 455 21,800 -1,980 Descending Northern Cal TRACON
09:51PM 37.6167 -120.9833 253° West 383 441 20,000 -1,860 Descending Northern Cal TRACON
09:52PM 37.6167 -121.1167 270° West 372 428 18,100 -1,860 Descending Northern Cal TRACON
09:53PM 37.6000 -121.2333 260° West 367 422 16,300 -2,040 Descending Northern Cal TRACON
09:54PM 37.5833 -121.3500 260° West 355 409 14,300 -1,980 Descending Northern Cal TRACON
09:55PM 37.5667 -121.4667 260° West 345 397 12,400 -1,620 Descending Northern Cal TRACON
09:56PM 37.5500 -121.5833 260° West 328 377 11,100 -1,260 Descending Northern Cal TRACON
09:57PM 37.5333 -121.7000 260° West 308 354 9,900 -1,140 Descending Northern Cal TRACON
09:58PM 37.5000 -121.7833 243° Southwest 283 326 8,900 -960 Descending Northern Cal TRACON
09:59PM 37.4833 -121.8833 258° West 276 318 8,000 -480 Descending Northern Cal TRACON
10:00PM 37.5000 -121.9500 288° West 209 241 8,000 -600 Level Northern Cal TRACON
10:01PM 37.5167 -122.0167 288° West 195 224 6,900 -1,200 Descending Northern Cal TRACON
10:02PM 37.5333 -122.0833 288° West 187 215 5,600 -1,200 Descending Northern Cal TRACON
10:03PM 37.5500 -122.1333 293° West 178 205 4,700 -1,140 Descending Northern Cal TRACON
10:03PM 37.5569 -122.1703 283° West 176 203 3,800 -1,080 Descending Oakland Center
10:04PM 37.5733 -122.2250 291° West 170 196 2,800 -1,080 Descending Oakland Center
10:05PM 37.5831 -122.2753 284° West 160 184 1,600 -1,080 Descending Oakland Center
10:06PM 37.5928 -122.3183 286° West 145 167 700 -720 Descending Oakland Center
10:07PM 37.6139 -122.3619 301° West 139 160 200 -540 Descending Oakland Center
10:09PM 37.6167 -122.3667 322° Northwest  Level FlightAware Approximate
10:16PM 37.6191 -122.3752 322° Northwest  Level Estimated